Bloomingdale, Michigan
Current Conditions -  °F | °C
As of 7:55 PM on Wednesday 17 Dec 2014 (Local Time) from KLWA Reporting Station
Overcast Overcast  
Wind Chill: 21°   Ceiling: 2300
Heat Index: 30°   Visibility: 10mi
Dew Point: 21°   Wind: 12mph
Humidity: 69%   Direction: 320°NW
Pressure: 30.21"   Gusts: NA
Location:  42.38°N, 85.96°W
Report Text: KLWA 180055Z AUTO 32010KT 10SM OVC023 M01/M06 A3021 RMK AO2 T10101061
Loading
Personal Weather Stations






























Interactive Weather Map New forecast layout! Learn more

10-Day Weather Forecast

Advertisements
Track Severe Weather on mobile